createdAt,value
2016-12-14T00:00:45.909Z,0
2016-12-14T00:01:54.591Z,0
2016-12-14T00:03:03.336Z,0
2016-12-14T00:04:12.020Z,0
2016-12-14T00:05:20.707Z,0
2016-12-14T00:06:29.387Z,0
2016-12-14T00:07:38.085Z,0
2016-12-14T00:08:46.820Z,0
2016-12-14T00:09:55.510Z,0
2016-12-14T00:11:04.198Z,0
2016-12-14T00:12:13.208Z,0
2016-12-14T00:13:21.894Z,0
2016-12-14T00:14:30.637Z,0
2016-12-14T00:15:39.328Z,0
2016-12-14T00:16:48.011Z,0
2016-12-14T00:17:56.695Z,0
2016-12-14T00:19:05.377Z,0
2016-12-14T00:20:14.114Z,0
2016-12-14T00:21:22.798Z,0
2016-12-14T00:22:31.482Z,0
2016-12-14T00:23:40.171Z,0
2016-12-14T00:24:48.893Z,0
2016-12-14T00:25:57.624Z,0
2016-12-14T00:27:06.311Z,0
2016-12-14T00:28:14.992Z,0
2016-12-14T00:29:23.677Z,0
2016-12-14T00:30:32.363Z,0
2016-12-14T00:31:41.096Z,0
2016-12-14T00:32:49.779Z,0
2016-12-14T00:33:58.471Z,0
2016-12-14T00:35:07.158Z,0
2016-12-14T00:36:15.843Z,0
2016-12-14T00:37:24.579Z,0
2016-12-14T00:38:33.261Z,0
2016-12-14T00:39:41.945Z,0
2016-12-14T00:40:50.634Z,0
2016-12-14T00:41:59.320Z,0
2016-12-14T00:43:08.095Z,0
2016-12-14T00:44:16.781Z,0
2016-12-14T00:45:25.465Z,0
2016-12-14T00:46:34.152Z,0
2016-12-14T00:47:42.837Z,0
2016-12-14T00:48:51.577Z,0
2016-12-14T00:50:00.266Z,0
2016-12-14T00:51:08.960Z,0
2016-12-14T00:52:17.651Z,0
2016-12-14T00:53:26.340Z,0
2016-12-14T00:54:35.083Z,0
2016-12-14T00:55:43.763Z,0
2016-12-14T00:56:52.445Z,0
2016-12-14T00:58:01.126Z,0
2016-12-14T00:59:09.816Z,0
2016-12-14T01:00:18.544Z,0
2016-12-14T01:01:27.229Z,0
2016-12-14T01:02:35.909Z,0
2016-12-14T01:03:44.597Z,0
2016-12-14T01:04:53.287Z,0
2016-12-14T01:06:02.026Z,0
2016-12-14T01:07:10.720Z,0
2016-12-14T01:08:19.402Z,0
2016-12-14T01:09:28.088Z,0
2016-12-14T01:10:36.774Z,0
2016-12-14T01:11:45.514Z,0
2016-12-14T01:12:54.204Z,0
2016-12-14T01:14:02.889Z,0
2016-12-14T01:15:11.573Z,0
2016-12-14T01:16:20.260Z,0
2016-12-14T01:17:29.044Z,0
2016-12-14T01:18:37.755Z,0
2016-12-14T01:19:46.438Z,0
2016-12-14T01:20:55.122Z,0
2016-12-14T01:22:03.811Z,0
2016-12-14T01:23:12.544Z,0
2016-12-14T01:24:21.230Z,0
2016-12-14T01:25:29.917Z,0
2016-12-14T01:26:38.605Z,0
2016-12-14T01:27:47.288Z,0
2016-12-14T01:28:56.020Z,0
2016-12-14T01:30:04.706Z,0
2016-12-14T01:31:13.394Z,0
2016-12-14T01:32:22.108Z,0
2016-12-14T01:33:30.794Z,0
2016-12-14T01:34:39.532Z,0
2016-12-14T01:35:48.212Z,0
2016-12-14T01:36:56.896Z,0
2016-12-14T01:38:05.585Z,0
2016-12-14T01:39:14.270Z,0
2016-12-14T01:40:23.308Z,0
2016-12-14T01:41:31.999Z,0
2016-12-14T01:42:40.687Z,0
2016-12-14T01:43:49.373Z,0
2016-12-14T01:44:58.059Z,0
2016-12-14T01:46:06.850Z,0
2016-12-14T01:47:15.537Z,0
2016-12-14T01:48:24.233Z,0
2016-12-14T01:49:32.922Z,0
2016-12-14T01:50:41.610Z,0
2016-12-14T01:51:50.340Z,0
2016-12-14T01:52:59.022Z,0
2016-12-14T01:54:07.706Z,0
2016-12-14T01:55:16.706Z,0
2016-12-14T01:56:25.390Z,0
2016-12-14T01:57:34.126Z,0
2016-12-14T01:58:42.813Z,0
2016-12-14T01:59:51.499Z,0
2016-12-14T02:01:00.188Z,0
2016-12-14T02:02:08.877Z,0
2016-12-14T02:03:17.637Z,0
2016-12-14T02:04:26.323Z,0
2016-12-14T02:05:35.008Z,0
2016-12-14T02:06:43.692Z,0
2016-12-14T02:07:52.388Z,0
2016-12-14T02:09:01.124Z,0
2016-12-14T02:10:09.808Z,0
2016-12-14T02:11:18.494Z,0
2016-12-14T02:12:27.176Z,0
2016-12-14T02:13:35.861Z,0
2016-12-14T02:14:44.598Z,0
2016-12-14T02:15:53.312Z,0
2016-12-14T02:17:01.999Z,0
2016-12-14T02:18:10.683Z,0
2016-12-14T02:19:19.368Z,0
2016-12-14T02:20:28.102Z,0
2016-12-14T02:21:36.788Z,0
2016-12-14T02:22:45.473Z,0
2016-12-14T02:23:54.152Z,0
2016-12-14T02:25:02.837Z,0
2016-12-14T02:26:11.577Z,0
2016-12-14T02:27:20.258Z,0
2016-12-14T02:28:28.938Z,0
2016-12-14T02:29:37.629Z,0
2016-12-14T02:30:46.318Z,0
2016-12-14T02:31:55.050Z,0
2016-12-14T02:33:03.738Z,0
2016-12-14T02:34:12.419Z,0
2016-12-14T02:35:21.105Z,0
2016-12-14T02:36:29.789Z,0
2016-12-14T02:37:38.550Z,0
2016-12-14T02:38:47.235Z,0
2016-12-14T02:39:55.946Z,0
2016-12-14T02:41:04.638Z,0
2016-12-14T02:42:13.320Z,0
2016-12-14T02:43:22.053Z,0
2016-12-14T02:44:30.738Z,0
2016-12-14T02:45:39.459Z,0
2016-12-14T02:46:48.141Z,0
2016-12-14T02:47:56.823Z,0
2016-12-14T02:49:05.556Z,0
2016-12-14T02:50:14.247Z,0
2016-12-14T02:51:22.928Z,0
2016-12-14T02:52:31.605Z,0
2016-12-14T02:53:40.290Z,0
2016-12-14T02:54:49.027Z,0
2016-12-14T02:55:57.712Z,0
2016-12-14T02:57:06.399Z,0
2016-12-14T02:58:15.086Z,0
2016-12-14T02:59:23.772Z,0
2016-12-14T03:00:32.823Z,0
2016-12-14T03:01:41.511Z,0
2016-12-14T03:02:50.195Z,0
2016-12-14T03:03:58.886Z,0
2016-12-14T03:05:07.572Z,0
2016-12-14T03:06:16.308Z,0
2016-12-14T03:07:24.990Z,0
2016-12-14T03:08:33.707Z,0
2016-12-14T03:09:42.403Z,0
2016-12-14T03:10:51.089Z,0
2016-12-14T03:11:59.826Z,0
2016-12-14T03:13:08.519Z,0
2016-12-14T03:14:17.204Z,0
2016-12-14T03:15:25.888Z,0
2016-12-14T03:16:34.569Z,0
2016-12-14T03:17:43.309Z,0
2016-12-14T03:18:51.997Z,0
2016-12-14T03:20:00.688Z,0
2016-12-14T03:21:09.373Z,0
2016-12-14T03:22:18.055Z,0
2016-12-14T03:23:26.786Z,0
2016-12-14T03:24:35.483Z,0
2016-12-14T03:25:44.172Z,0
2016-12-14T03:26:52.861Z,0
2016-12-14T03:28:01.542Z,0
2016-12-14T03:29:10.278Z,0
2016-12-14T03:30:18.964Z,0
2016-12-14T03:31:27.646Z,0
2016-12-14T03:32:36.330Z,0
2016-12-14T03:33:45.012Z,0
2016-12-14T03:34:53.845Z,0
2016-12-14T03:36:02.533Z,0
2016-12-14T03:37:11.218Z,0
2016-12-14T03:38:19.902Z,0
2016-12-14T03:39:28.593Z,0
2016-12-14T03:40:37.325Z,0
2016-12-14T03:41:46.012Z,0
2016-12-14T03:42:54.694Z,0
2016-12-14T03:44:03.387Z,0
2016-12-14T03:45:12.073Z,0
2016-12-14T03:46:20.766Z,0
2016-12-14T03:47:29.453Z,0
2016-12-14T03:48:38.135Z,0
2016-12-14T03:49:46.815Z,0
2016-12-14T03:50:55.499Z,0
2016-12-14T03:52:04.504Z,0
2016-12-14T03:53:13.191Z,0
2016-12-14T03:54:21.878Z,0
2016-12-14T03:55:30.594Z,0
2016-12-14T03:56:39.280Z,0
2016-12-14T03:57:47.992Z,0
2016-12-14T03:58:56.682Z,0
2016-12-14T04:00:05.400Z,0
2016-12-14T04:01:14.084Z,0
2016-12-14T04:02:22.768Z,0
2016-12-14T04:03:31.456Z,0
2016-12-14T04:04:40.147Z,0
2016-12-14T04:05:48.833Z,0
2016-12-14T04:06:57.523Z,0
2016-12-14T04:08:06.209Z,0
2016-12-14T04:09:14.894Z,0
2016-12-14T04:10:23.598Z,0
2016-12-14T04:11:32.290Z,0
2016-12-14T04:12:40.977Z,0
2016-12-14T04:13:49.653Z,0
2016-12-14T04:14:58.337Z,0
2016-12-14T04:16:07.034Z,0
2016-12-14T04:17:15.720Z,0
2016-12-14T04:18:24.404Z,0
2016-12-14T04:19:33.091Z,0
2016-12-14T04:20:41.775Z,0
2016-12-14T04:21:50.461Z,0
2016-12-14T04:22:59.148Z,0
2016-12-14T04:24:07.832Z,0
2016-12-14T04:25:16.515Z,0
2016-12-14T04:26:25.199Z,0
2016-12-14T04:27:33.883Z,0
2016-12-14T04:28:42.567Z,0
2016-12-14T04:29:51.246Z,0
2016-12-14T04:30:59.925Z,0
2016-12-14T04:32:08.611Z,0
2016-12-14T04:33:17.295Z,0
2016-12-14T04:34:25.987Z,0
2016-12-14T04:35:34.676Z,0
2016-12-14T04:36:43.358Z,0
2016-12-14T04:37:52.041Z,0
2016-12-14T04:39:00.732Z,0
2016-12-14T04:40:09.420Z,0
2016-12-14T04:41:18.104Z,0
2016-12-14T04:42:26.820Z,0
2016-12-14T04:43:35.531Z,0
2016-12-14T04:44:44.214Z,0
2016-12-14T04:45:52.896Z,0
2016-12-14T04:47:01.583Z,0
2016-12-14T04:48:10.267Z,0
2016-12-14T04:49:19.266Z,0
2016-12-14T04:50:27.992Z,0
2016-12-14T04:51:36.680Z,0
2016-12-14T04:52:45.358Z,0
2016-12-14T04:53:54.043Z,0
2016-12-14T04:55:02.730Z,0
2016-12-14T04:56:11.416Z,0
2016-12-14T04:57:20.102Z,0
2016-12-14T04:58:28.784Z,0
2016-12-14T04:59:37.465Z,0
2016-12-14T05:00:46.148Z,0
2016-12-14T05:01:54.834Z,0
2016-12-14T05:03:03.513Z,0
2016-12-14T05:04:12.203Z,0
2016-12-14T05:05:20.886Z,0
2016-12-14T05:06:29.576Z,0
2016-12-14T05:07:38.288Z,0
2016-12-14T05:08:46.967Z,0
2016-12-14T05:09:55.650Z,0
2016-12-14T05:11:04.338Z,0
2016-12-14T05:12:13.017Z,0
2016-12-14T05:13:21.704Z,0
2016-12-14T05:14:30.415Z,0
2016-12-14T05:15:39.098Z,0
2016-12-14T05:16:47.790Z,0
2016-12-14T05:17:56.472Z,0
2016-12-14T05:19:05.152Z,0
2016-12-14T05:20:13.835Z,0
2016-12-14T05:21:22.830Z,0
2016-12-14T05:22:31.512Z,0
2016-12-14T05:23:40.199Z,0
2016-12-14T05:24:48.881Z,0
2016-12-14T05:25:57.567Z,0
2016-12-14T05:27:06.252Z,0
2016-12-14T05:28:14.932Z,0
2016-12-14T05:29:23.620Z,0
2016-12-14T05:30:32.306Z,0
2016-12-14T05:31:40.988Z,0
2016-12-14T05:32:49.677Z,0
2016-12-14T05:33:58.362Z,0
2016-12-14T05:35:07.355Z,0
2016-12-14T05:36:16.083Z,0
2016-12-14T05:37:24.780Z,0
2016-12-14T05:38:33.461Z,0
2016-12-14T05:39:42.142Z,0
2016-12-14T05:40:50.821Z,0
2016-12-14T05:41:59.508Z,0
2016-12-14T05:43:08.194Z,0
2016-12-14T05:44:16.880Z,0
2016-12-14T05:45:25.562Z,0
2016-12-14T05:46:34.245Z,0
2016-12-14T05:47:42.954Z,0
2016-12-14T05:48:51.646Z,0
2016-12-14T05:50:00.334Z,0
2016-12-14T05:51:09.026Z,0
2016-12-14T05:52:17.709Z,0
2016-12-14T05:53:26.390Z,0
2016-12-14T05:54:35.074Z,0
2016-12-14T05:55:43.761Z,0
2016-12-14T05:56:52.444Z,0
2016-12-14T05:58:01.126Z,0
2016-12-14T05:59:09.811Z,0
2016-12-14T06:00:18.495Z,0
2016-12-14T06:01:27.183Z,0
2016-12-14T06:02:36.189Z,0
2016-12-14T06:03:44.870Z,0
2016-12-14T06:04:53.557Z,0
2016-12-14T06:06:02.241Z,0
2016-12-14T06:07:10.928Z,0
2016-12-14T06:08:19.619Z,0
2016-12-14T06:09:28.304Z,0
2016-12-14T06:10:37.311Z,0
2016-12-14T06:11:45.991Z,0
2016-12-14T06:12:54.683Z,0
2016-12-14T06:14:03.371Z,0
2016-12-14T06:15:12.365Z,0
2016-12-14T06:16:21.047Z,0
2016-12-14T06:17:29.732Z,0
2016-12-14T06:18:38.746Z,0
2016-12-14T06:19:47.432Z,0
2016-12-14T06:20:56.114Z,0
2016-12-14T06:22:05.111Z,0
2016-12-14T06:23:13.802Z,0
2016-12-14T06:24:22.487Z,0
2016-12-14T06:25:31.172Z,0
2016-12-14T06:26:39.855Z,0
2016-12-14T06:27:48.537Z,0
2016-12-14T06:28:57.218Z,0
2016-12-14T06:30:05.907Z,0
2016-12-14T06:31:14.624Z,0
2016-12-14T06:32:23.306Z,0
2016-12-14T06:33:31.985Z,0
2016-12-14T06:34:40.665Z,0
2016-12-14T06:35:49.350Z,0
2016-12-14T06:36:58.038Z,0
2016-12-14T06:38:06.719Z,0
2016-12-14T06:39:15.405Z,0
2016-12-14T06:40:24.412Z,0
2016-12-14T06:41:33.117Z,0
2016-12-14T06:42:41.806Z,0
2016-12-14T06:43:50.586Z,0
2016-12-14T06:44:59.271Z,0
2016-12-14T06:46:08.269Z,0
2016-12-14T06:47:16.955Z,0
2016-12-14T06:48:25.645Z,0
2016-12-14T06:49:34.326Z,0
2016-12-14T06:50:43.007Z,0
2016-12-14T06:51:51.692Z,0
2016-12-14T06:53:00.387Z,0
2016-12-14T06:54:09.072Z,0
2016-12-14T06:55:17.764Z,0
2016-12-14T06:56:26.466Z,0
2016-12-14T06:57:35.150Z,0
2016-12-14T06:58:43.838Z,0
2016-12-14T06:59:52.523Z,0
2016-12-14T07:01:01.208Z,0
2016-12-14T07:02:09.897Z,0
2016-12-14T07:03:18.584Z,0
2016-12-14T07:04:27.284Z,0
2016-12-14T07:05:35.998Z,0
2016-12-14T07:06:44.678Z,0
2016-12-14T07:07:53.359Z,0
2016-12-14T07:09:02.043Z,0
2016-12-14T07:10:10.732Z,0
2016-12-14T07:11:19.417Z,0
2016-12-14T07:12:28.107Z,0
2016-12-14T07:13:36.789Z,0
2016-12-14T07:14:45.475Z,0
2016-12-14T07:15:54.157Z,0
2016-12-14T07:17:02.847Z,0
2016-12-14T07:18:11.535Z,0
2016-12-14T07:19:20.219Z,4
2016-12-14T07:20:28.901Z,4
2016-12-14T07:21:37.588Z,0
2016-12-14T07:22:46.273Z,0
2016-12-14T07:23:54.952Z,4
2016-12-14T07:25:03.635Z,4
2016-12-14T07:26:12.323Z,0
2016-12-14T07:27:21.006Z,4
2016-12-14T07:28:29.718Z,4
2016-12-14T07:29:38.405Z,4
2016-12-14T07:30:47.086Z,4
2016-12-14T07:31:55.787Z,8
2016-12-14T07:33:04.476Z,8
2016-12-14T07:34:13.165Z,8
2016-12-14T07:35:21.845Z,8
2016-12-14T07:36:30.862Z,8
2016-12-14T07:37:39.546Z,12
2016-12-14T07:38:48.228Z,12
2016-12-14T07:39:56.908Z,12
2016-12-14T07:41:05.621Z,16
2016-12-14T07:42:14.305Z,16
2016-12-14T07:43:22.992Z,20
2016-12-14T07:44:31.684Z,20
2016-12-14T07:45:40.366Z,24
2016-12-14T07:46:49.046Z,24
2016-12-14T07:47:57.731Z,32
2016-12-14T07:49:06.421Z,36
2016-12-14T07:50:15.127Z,40
2016-12-14T07:51:23.811Z,44
2016-12-14T07:52:32.497Z,48
2016-12-14T07:53:41.182Z,52
2016-12-14T07:54:49.867Z,56
2016-12-14T07:55:58.554Z,64
2016-12-14T07:57:07.238Z,72
2016-12-14T07:58:15.947Z,76
2016-12-14T07:59:24.628Z,88
2016-12-14T08:00:33.321Z,92
2016-12-14T08:01:42.010Z,104
2016-12-14T08:02:50.697Z,112
2016-12-14T08:03:59.422Z,124
2016-12-14T08:05:08.108Z,132
2016-12-14T08:06:16.791Z,140
2016-12-14T08:07:25.474Z,152
2016-12-14T08:08:34.185Z,164
2016-12-14T08:09:42.868Z,176
2016-12-14T08:10:51.556Z,192
2016-12-14T08:12:00.240Z,204
2016-12-14T08:13:08.924Z,220
2016-12-14T08:14:17.605Z,232
2016-12-14T08:15:26.287Z,248
2016-12-14T08:16:34.969Z,268
2016-12-14T08:17:43.659Z,284
2016-12-14T08:18:52.340Z,296
2016-12-14T08:20:01.021Z,316
2016-12-14T08:21:09.707Z,336
2016-12-14T08:22:18.389Z,356
2016-12-14T08:23:27.077Z,372
2016-12-14T08:24:35.764Z,388
2016-12-14T08:25:44.454Z,408
2016-12-14T08:26:53.140Z,428
2016-12-14T08:28:01.824Z,444
2016-12-14T08:29:10.510Z,464
2016-12-14T08:30:19.194Z,488
2016-12-14T08:31:28.189Z,508
2016-12-14T08:32:36.877Z,528
2016-12-14T08:33:45.568Z,548
2016-12-14T08:34:54.275Z,568
2016-12-14T08:36:02.966Z,588
2016-12-14T08:37:11.650Z,608
2016-12-14T08:38:20.336Z,628
2016-12-14T08:39:29.030Z,652
2016-12-14T08:40:37.706Z,672
2016-12-14T08:41:46.396Z,696
2016-12-14T08:42:55.084Z,716
2016-12-14T08:44:03.769Z,740
2016-12-14T08:45:12.457Z,764
2016-12-14T08:46:21.140Z,788
2016-12-14T08:47:29.823Z,808
2016-12-14T08:48:38.506Z,832
2016-12-14T08:49:47.232Z,856
2016-12-14T08:50:55.920Z,876
2016-12-14T08:52:04.605Z,900
2016-12-14T08:53:13.289Z,924
2016-12-14T08:54:22.287Z,952
2016-12-14T08:55:30.998Z,976
2016-12-14T08:56:39.689Z,1000
2016-12-14T08:57:48.401Z,1024
2016-12-14T08:58:57.082Z,1052
2016-12-14T09:00:05.771Z,1076
2016-12-14T09:01:14.462Z,1108
2016-12-14T09:02:23.170Z,1144
2016-12-14T09:03:31.851Z,1172
2016-12-14T09:04:40.548Z,1200
2016-12-14T09:05:49.227Z,1240
2016-12-14T09:06:57.910Z,1268
2016-12-14T09:08:06.594Z,1276
2016-12-14T09:09:15.277Z,1284
2016-12-14T09:10:23.962Z,1304
2016-12-14T09:11:32.973Z,1316
2016-12-14T09:12:41.686Z,1328
2016-12-14T09:13:50.396Z,1344
2016-12-14T09:14:59.078Z,1360
2016-12-14T09:16:07.761Z,1372
2016-12-14T09:17:16.454Z,1388
2016-12-14T09:18:25.138Z,1412
2016-12-14T09:19:33.818Z,1436
2016-12-14T09:20:42.505Z,1464
2016-12-14T09:21:51.502Z,1488
2016-12-14T09:23:00.213Z,1504
2016-12-14T09:24:08.925Z,1512
2016-12-14T09:25:17.612Z,1524
2016-12-14T09:26:26.291Z,1528
2016-12-14T09:27:35.008Z,1548
2016-12-14T09:28:43.690Z,1564
2016-12-14T09:29:52.375Z,1580
2016-12-14T09:31:01.062Z,1608
2016-12-14T09:32:09.749Z,1620
2016-12-14T09:33:18.464Z,1640
2016-12-14T09:34:27.150Z,1664
2016-12-14T09:35:35.829Z,1684
2016-12-14T09:36:44.514Z,1712
2016-12-14T09:37:53.197Z,1736
2016-12-14T09:39:01.877Z,1768
2016-12-14T09:40:10.563Z,1792
2016-12-14T09:41:19.247Z,1808
2016-12-14T09:42:27.958Z,1816
2016-12-14T09:43:36.646Z,1816
2016-12-14T09:44:45.333Z,1816
2016-12-14T09:45:54.049Z,1816
2016-12-14T09:47:02.831Z,1824
2016-12-14T09:48:11.520Z,1828
2016-12-14T09:49:20.204Z,1832
2016-12-14T09:50:28.896Z,1832
2016-12-14T09:51:37.586Z,1832
2016-12-14T09:52:46.326Z,1844
2016-12-14T09:53:55.008Z,1864
2016-12-14T09:55:03.691Z,1896
2016-12-14T09:56:12.374Z,1920
2016-12-14T09:57:21.059Z,1936
2016-12-14T09:58:29.742Z,1948
2016-12-14T09:59:38.438Z,1968
2016-12-14T10:00:47.118Z,1980
2016-12-14T10:01:55.804Z,2008
2016-12-14T10:03:04.502Z,2032
2016-12-14T10:04:13.187Z,2064
2016-12-14T10:05:21.874Z,2108
2016-12-14T10:06:30.560Z,2148
2016-12-14T10:07:39.244Z,2168
2016-12-14T10:08:47.959Z,2184
2016-12-14T10:09:56.676Z,2192
2016-12-14T10:11:05.377Z,2200
2016-12-14T10:12:14.064Z,2220
2016-12-14T10:13:22.768Z,2232
2016-12-14T10:14:31.570Z,2252
2016-12-14T10:15:40.258Z,2272
2016-12-14T10:16:48.945Z,2300
2016-12-14T10:17:57.633Z,2324
2016-12-14T10:19:06.319Z,2352
2016-12-14T10:20:15.004Z,2376
2016-12-14T10:21:23.687Z,2404
2016-12-14T10:22:32.365Z,2428
2016-12-14T10:23:41.052Z,2440
2016-12-14T10:24:49.746Z,2468
2016-12-14T10:25:58.742Z,2496
2016-12-14T10:27:07.435Z,2512
2016-12-14T10:28:16.121Z,2536
2016-12-14T10:29:24.803Z,2600
2016-12-14T10:30:33.520Z,3968
2016-12-14T10:31:42.210Z,5736
2016-12-14T10:32:50.893Z,5944
2016-12-14T10:33:59.579Z,5676
2016-12-14T10:35:08.268Z,5708
2016-12-14T10:36:16.954Z,6084
2016-12-14T10:37:25.639Z,6364
2016-12-14T10:38:34.325Z,6540
2016-12-14T10:39:43.014Z,6576
2016-12-14T10:40:52.010Z,6576
2016-12-14T10:42:00.704Z,6652
2016-12-14T10:43:09.714Z,6920
2016-12-14T10:44:18.411Z,7076
2016-12-14T10:45:27.097Z,7148
2016-12-14T10:46:35.807Z,7296
2016-12-14T10:47:44.494Z,7412
2016-12-14T10:48:53.177Z,7376
2016-12-14T10:50:01.872Z,7320
2016-12-14T10:51:10.552Z,7340
2016-12-14T10:52:19.238Z,7592
2016-12-14T10:53:27.919Z,7740
2016-12-14T10:54:36.603Z,7832
2016-12-14T10:55:45.292Z,7984
2016-12-14T10:56:53.982Z,8180
2016-12-14T10:58:02.671Z,8048
2016-12-14T10:59:11.365Z,8176
2016-12-14T11:00:20.048Z,8388
2016-12-14T11:01:28.733Z,8404
2016-12-14T11:02:37.424Z,8496
2016-12-14T11:03:46.110Z,8596
2016-12-14T11:04:54.804Z,8856
2016-12-14T11:06:03.498Z,8940
2016-12-14T11:07:12.183Z,8664
2016-12-14T11:08:20.868Z,8612
2016-12-14T11:09:29.559Z,8524
2016-12-14T11:10:38.249Z,8568
2016-12-14T11:11:46.940Z,8744
2016-12-14T11:12:55.633Z,9072
2016-12-14T11:14:04.314Z,9008
2016-12-14T11:15:13.036Z,8980
2016-12-14T11:16:21.726Z,8816
2016-12-14T11:17:30.413Z,8972
2016-12-14T11:18:39.498Z,8932
2016-12-14T11:19:48.208Z,9040
2016-12-14T11:20:56.900Z,9020
2016-12-14T11:22:05.589Z,9060
2016-12-14T11:23:14.275Z,8776
2016-12-14T11:24:22.967Z,8828
2016-12-14T11:25:31.667Z,9008
2016-12-14T11:26:40.353Z,8976
2016-12-14T11:27:49.042Z,9080
2016-12-14T11:28:57.736Z,9048
2016-12-14T11:30:06.430Z,8860
2016-12-14T11:31:15.121Z,8876
2016-12-14T11:32:23.809Z,8932
2016-12-14T11:33:32.500Z,8832
2016-12-14T11:34:41.189Z,8932
2016-12-14T11:35:49.878Z,9044
2016-12-14T11:36:58.567Z,9208
2016-12-14T11:38:07.257Z,9288
2016-12-14T11:39:15.944Z,9172
2016-12-14T11:40:24.639Z,8860
2016-12-14T11:41:33.330Z,8916
2016-12-14T11:42:42.018Z,9032
2016-12-14T11:43:50.717Z,9284
2016-12-14T11:44:59.411Z,9456
2016-12-14T11:46:08.104Z,9680
2016-12-14T11:47:16.795Z,9684
2016-12-14T11:48:25.489Z,9764
2016-12-14T11:49:34.180Z,9860
2016-12-14T11:50:42.872Z,10252
2016-12-14T11:51:51.571Z,10848
2016-12-14T11:53:00.274Z,10152
2016-12-14T11:54:08.968Z,8616
2016-12-14T11:55:17.659Z,7972
2016-12-14T11:56:26.675Z,7560
2016-12-14T11:57:35.363Z,7284
2016-12-14T11:58:44.056Z,7036
2016-12-14T11:59:52.752Z,6780
2016-12-14T12:01:01.453Z,6684
2016-12-14T12:02:10.144Z,6588
2016-12-14T12:03:18.845Z,6556
2016-12-14T12:04:27.557Z,6568
2016-12-14T12:05:36.249Z,6528
2016-12-14T12:06:44.944Z,6528
2016-12-14T12:07:53.641Z,6552
2016-12-14T12:09:02.333Z,6560
2016-12-14T12:10:11.021Z,6552
2016-12-14T12:11:19.709Z,6536
2016-12-14T12:12:28.405Z,6500
2016-12-14T12:13:37.100Z,6520
2016-12-14T12:14:45.795Z,6524
2016-12-14T12:15:54.878Z,6484
2016-12-14T12:17:03.572Z,6464
2016-12-14T12:18:12.261Z,6480
2016-12-14T12:19:20.952Z,6468
2016-12-14T12:20:29.646Z,6436
2016-12-14T12:21:38.686Z,6388
2016-12-14T12:22:47.377Z,6320
2016-12-14T12:23:56.075Z,6292
2016-12-14T12:25:04.773Z,6252
2016-12-14T12:26:13.467Z,5992
2016-12-14T12:27:22.177Z,5648
2016-12-14T12:28:30.881Z,5108
2016-12-14T12:29:39.574Z,4268
2016-12-14T12:30:48.284Z,3996
2016-12-14T12:31:56.984Z,3948
2016-12-14T12:33:05.676Z,4288
2016-12-14T12:34:14.398Z,5344
2016-12-14T12:35:23.093Z,5772
2016-12-14T12:36:31.794Z,5728
2016-12-14T12:37:40.483Z,5164
2016-12-14T12:38:49.174Z,3836
2016-12-14T12:39:57.869Z,3172
2016-12-14T12:41:06.575Z,3124
2016-12-14T12:42:15.266Z,3264
2016-12-14T12:43:23.963Z,3712
2016-12-14T12:44:32.658Z,4024
2016-12-14T12:45:41.360Z,3984
2016-12-14T12:46:50.052Z,3112
2016-12-14T12:47:58.749Z,2600
2016-12-14T12:49:07.445Z,2576
2016-12-14T12:50:16.137Z,2424
2016-12-14T12:51:24.835Z,2132
2016-12-14T12:52:33.524Z,2072
2016-12-14T12:53:42.211Z,1996
2016-12-14T12:54:50.914Z,1972
2016-12-14T12:55:59.601Z,1948
2016-12-14T12:57:08.290Z,1960
2016-12-14T12:58:16.981Z,2072
2016-12-14T12:59:25.672Z,2008
2016-12-14T13:00:34.357Z,1856
2016-12-14T13:01:43.059Z,1836
2016-12-14T13:02:52.391Z,1820
2016-12-14T13:04:01.076Z,2072
2016-12-14T13:05:09.767Z,2944
2016-12-14T13:06:18.484Z,2884
2016-12-14T13:07:27.493Z,2332
2016-12-14T13:08:36.192Z,1752
2016-12-14T13:09:44.880Z,1668
2016-12-14T13:10:53.573Z,1644
2016-12-14T13:12:02.261Z,1620
2016-12-14T13:13:10.951Z,1592
2016-12-14T13:14:19.638Z,1576
2016-12-14T13:15:28.337Z,1552
2016-12-14T13:16:37.030Z,1532
2016-12-14T13:17:45.735Z,1508
2016-12-14T13:18:54.419Z,1480
2016-12-14T13:20:03.109Z,1460
2016-12-14T13:21:11.793Z,1436
2016-12-14T13:22:20.479Z,1408
2016-12-14T13:23:29.229Z,1384
2016-12-14T13:24:38.121Z,1356
2016-12-14T13:25:46.883Z,1328
2016-12-14T13:26:55.600Z,1300
2016-12-14T13:28:04.295Z,1276
2016-12-14T13:29:12.984Z,1244
2016-12-14T13:30:21.666Z,1216
2016-12-14T13:31:30.355Z,1188
2016-12-14T13:32:39.047Z,1156
2016-12-14T13:33:48.061Z,1132
2016-12-14T13:34:57.087Z,1100
2016-12-14T13:36:05.779Z,1072
2016-12-14T13:37:14.465Z,1044
2016-12-14T13:38:23.156Z,1016
2016-12-14T13:39:31.850Z,992
2016-12-14T13:40:40.535Z,960
2016-12-14T13:41:49.227Z,932
2016-12-14T13:42:57.909Z,904
2016-12-14T13:44:06.621Z,876
2016-12-14T13:45:15.305Z,844
2016-12-14T13:46:23.990Z,816
2016-12-14T13:47:32.681Z,776
2016-12-14T13:48:41.365Z,756
2016-12-14T13:49:50.054Z,728
2016-12-14T13:50:59.047Z,700
2016-12-14T13:52:07.733Z,672
2016-12-14T13:53:16.416Z,644
2016-12-14T13:54:25.435Z,620
2016-12-14T13:55:34.117Z,596
2016-12-14T13:56:42.799Z,576
2016-12-14T13:57:51.493Z,552
2016-12-14T13:59:00.179Z,536
2016-12-14T14:00:08.866Z,516
2016-12-14T14:01:17.554Z,496
2016-12-14T14:02:26.239Z,476
2016-12-14T14:03:34.922Z,452
2016-12-14T14:04:43.623Z,432
2016-12-14T14:05:52.308Z,412
2016-12-14T14:07:00.999Z,392
2016-12-14T14:08:09.684Z,372
2016-12-14T14:09:18.388Z,352
2016-12-14T14:10:27.079Z,332
2016-12-14T14:11:35.763Z,312
2016-12-14T14:12:44.458Z,296
2016-12-14T14:13:53.152Z,276
2016-12-14T14:15:01.835Z,260
2016-12-14T14:16:10.523Z,244
2016-12-14T14:17:19.206Z,224
2016-12-14T14:18:27.891Z,208
2016-12-14T14:19:36.582Z,192
2016-12-14T14:20:45.275Z,180
2016-12-14T14:21:53.964Z,164
2016-12-14T14:23:02.678Z,152
2016-12-14T14:24:11.370Z,140
2016-12-14T14:25:20.057Z,132
2016-12-14T14:26:28.743Z,116
2016-12-14T14:27:37.431Z,108
2016-12-14T14:28:46.141Z,100
2016-12-14T14:29:54.825Z,92
2016-12-14T14:31:03.508Z,84
2016-12-14T14:32:12.196Z,76
2016-12-14T14:33:20.883Z,68
2016-12-14T14:34:29.566Z,60
2016-12-14T14:35:38.258Z,52
2016-12-14T14:36:46.944Z,48
2016-12-14T14:37:55.627Z,40
2016-12-14T14:39:04.335Z,40
2016-12-14T14:40:13.019Z,32
2016-12-14T14:41:21.706Z,32
2016-12-14T14:42:30.390Z,28
2016-12-14T14:43:39.080Z,24
2016-12-14T14:44:47.768Z,24
2016-12-14T14:45:56.453Z,20
2016-12-14T14:47:05.138Z,16
2016-12-14T14:48:13.861Z,12
2016-12-14T14:49:22.553Z,12
2016-12-14T14:50:31.238Z,8
2016-12-14T14:51:39.955Z,12
2016-12-14T14:52:48.635Z,8
2016-12-14T14:53:57.317Z,8
2016-12-14T14:55:06.037Z,8
2016-12-14T14:56:14.724Z,8
2016-12-14T14:57:23.422Z,4
2016-12-14T14:58:32.099Z,4
2016-12-14T14:59:40.786Z,4
2016-12-14T15:00:49.472Z,4
2016-12-14T15:01:58.153Z,4
2016-12-14T15:03:06.837Z,0
2016-12-14T15:04:15.524Z,0
2016-12-14T15:05:24.207Z,4
2016-12-14T15:06:32.887Z,4
2016-12-14T15:07:41.572Z,4
2016-12-14T15:08:50.263Z,0
2016-12-14T15:09:58.949Z,0
2016-12-14T15:11:07.637Z,0
2016-12-14T15:12:16.323Z,0
2016-12-14T15:13:25.004Z,0
2016-12-14T15:14:33.691Z,0
2016-12-14T15:15:42.374Z,0
2016-12-14T15:16:51.069Z,0
2016-12-14T15:17:59.752Z,0
2016-12-14T15:19:08.441Z,0
2016-12-14T15:20:17.126Z,0
2016-12-14T15:21:25.808Z,0
2016-12-14T15:22:34.488Z,0
2016-12-14T15:23:43.170Z,0
2016-12-14T15:24:51.859Z,0
2016-12-14T15:26:00.862Z,0
2016-12-14T15:27:09.547Z,0
2016-12-14T15:28:18.228Z,0
2016-12-14T15:29:26.910Z,0
2016-12-14T15:30:35.592Z,0
2016-12-14T15:31:44.305Z,0
2016-12-14T15:32:52.987Z,0
2016-12-14T15:34:01.675Z,0
2016-12-14T15:35:10.410Z,0
2016-12-14T15:36:19.088Z,0
2016-12-14T15:37:27.772Z,0
2016-12-14T15:38:36.464Z,0
2016-12-14T15:39:45.141Z,0
2016-12-14T15:40:53.823Z,0
2016-12-14T15:42:02.507Z,0
2016-12-14T15:43:11.193Z,0
2016-12-14T15:44:19.904Z,0
2016-12-14T15:45:28.583Z,0
2016-12-14T15:46:37.259Z,0
2016-12-14T15:47:45.941Z,0
2016-12-14T15:48:54.625Z,0
2016-12-14T15:50:03.319Z,0
2016-12-14T15:51:12.006Z,0
2016-12-14T15:52:21.001Z,0
2016-12-14T15:53:29.692Z,0
2016-12-14T15:54:38.373Z,0
2016-12-14T15:55:47.060Z,0
2016-12-14T15:56:55.750Z,0
2016-12-14T15:58:04.440Z,0
2016-12-14T15:59:13.127Z,0
2016-12-14T16:00:21.834Z,0
2016-12-14T16:01:30.519Z,0
2016-12-14T16:02:39.228Z,0
2016-12-14T16:03:47.905Z,0
2016-12-14T16:04:56.590Z,0
2016-12-14T16:06:05.274Z,0
2016-12-14T16:07:14.273Z,0
2016-12-14T16:08:22.956Z,0
2016-12-14T16:09:31.633Z,0
2016-12-14T16:10:40.316Z,0
2016-12-14T16:11:48.996Z,0
2016-12-14T16:12:57.678Z,0
2016-12-14T16:14:06.359Z,0
2016-12-14T16:15:15.045Z,0